createdAt,value
2022-10-10T00:02:46.409Z,4.17
2022-10-10T00:08:57.236Z,3.83
2022-10-10T00:12:54.440Z,4.03
2022-10-10T00:15:48.002Z,4.15
2022-10-10T00:18:49.438Z,4.20
2022-10-10T00:21:50.753Z,3.80
2022-10-10T00:28:19.581Z,4.10
2022-10-10T00:31:23.489Z,4.60
2022-10-10T00:34:10.875Z,4.43
2022-10-10T00:36:58.338Z,4.27
2022-10-10T00:40:15.085Z,4.30
2022-10-10T00:43:02.752Z,4.60
2022-10-10T00:45:50.691Z,4.40
2022-10-10T00:49:08.646Z,4.87
2022-10-10T00:51:59.235Z,4.83
2022-10-10T01:22:13.033Z,4.47
2022-10-10T01:25:17.159Z,4.07
2022-10-10T01:28:51.004Z,4.70
2022-10-10T01:53:04.787Z,4.00
2022-10-10T01:56:13.103Z,4.60
2022-10-10T01:59:44.128Z,4.57
2022-10-10T02:03:05.328Z,4.40
2022-10-10T02:06:41.446Z,4.50
2022-10-10T02:10:09.523Z,4.13
2022-10-10T02:13:23.972Z,4.93
2022-10-10T02:16:35.983Z,4.60
2022-10-10T02:23:37.216Z,5.13
2022-10-10T02:33:20.212Z,4.80
2022-10-10T02:36:30.604Z,4.67
2022-10-10T02:40:28.265Z,5.07
2022-10-10T02:43:38.434Z,4.50
2022-10-10T02:47:22.994Z,5.10
2022-10-10T02:51:13.715Z,4.97
2022-10-10T02:55:46.385Z,4.95
2022-10-10T03:08:51.552Z,5.07
2022-10-10T03:12:23.059Z,4.67
2022-10-10T03:15:39.141Z,4.80
2022-10-10T03:19:11.939Z,5.00
2022-10-10T03:22:15.811Z,5.37
2022-10-10T03:25:19.037Z,5.30
2022-10-10T03:28:37.878Z,4.90
2022-10-10T03:31:35.672Z,5.83
2022-10-10T03:34:29.470Z,5.07
2022-10-10T03:37:27.809Z,4.90
2022-10-10T03:43:49.022Z,5.37
2022-10-10T03:51:04.397Z,5.83
2022-10-10T03:54:08.600Z,4.73
2022-10-10T03:57:44.675Z,5.67
2022-10-10T04:00:32.304Z,5.30
2022-10-10T04:03:33.585Z,5.90
2022-10-10T04:06:21.907Z,5.27
2022-10-10T04:09:52.746Z,5.53
2022-10-10T04:13:44.468Z,5.23
2022-10-10T04:17:02.978Z,5.07
2022-10-10T04:20:04.382Z,5.30
2022-10-10T04:22:58.555Z,4.93
2022-10-10T04:26:02.388Z,6.07
2022-10-10T04:29:24.448Z,5.70
2022-10-10T04:32:31.085Z,5.30
2022-10-10T04:36:39.922Z,5.67
2022-10-10T04:42:46.011Z,5.47
2022-10-10T04:45:51.568Z,5.70
2022-10-10T04:49:07.936Z,5.23
2022-10-10T04:59:41.234Z,5.80
2022-10-10T05:02:57.614Z,5.53
2022-10-10T05:05:48.703Z,5.60
2022-10-10T05:09:24.389Z,5.90
2022-10-10T05:12:23.208Z,5.90
2022-10-10T05:23:14.588Z,6.03
2022-10-10T05:30:24.425Z,5.63
2022-10-10T05:36:57.793Z,6.00
2022-10-10T05:41:03.465Z,5.90
2022-10-10T05:44:23.346Z,6.27
2022-10-10T05:50:32.561Z,6.23
2022-10-10T05:53:21.346Z,6.50
2022-10-10T05:56:09.854Z,6.83
2022-10-10T05:58:57.045Z,6.10
2022-10-10T06:01:45.087Z,7.53
2022-10-10T06:04:32.523Z,6.43
2022-10-10T06:07:19.941Z,6.63
2022-10-10T06:10:08.659Z,7.00
2022-10-10T06:12:56.274Z,7.07
2022-10-10T06:16:06.775Z,6.93
2022-10-10T06:18:56.602Z,7.37
2022-10-10T06:21:44.145Z,6.77
2022-10-10T06:24:31.803Z,6.80
2022-10-10T06:27:19.329Z,6.67
2022-10-10T06:30:07.469Z,6.70
2022-10-10T06:32:57.123Z,6.93
2022-10-10T06:35:46.628Z,7.47
2022-10-10T06:38:44.634Z,6.53
2022-10-10T06:41:32.241Z,7.07
2022-10-10T06:44:19.957Z,6.90
2022-10-10T06:47:08.166Z,7.37
2022-10-10T06:49:55.592Z,6.83
2022-10-10T06:52:43.068Z,7.00
2022-10-10T06:55:30.469Z,5.93
2022-10-10T06:58:17.896Z,7.20
2022-10-10T07:01:05.444Z,7.07
2022-10-10T07:03:53.277Z,6.60
2022-10-10T07:06:40.754Z,7.37
2022-10-10T07:09:28.235Z,6.87
2022-10-10T07:12:15.732Z,7.43
2022-10-10T07:15:03.283Z,6.97
2022-10-10T07:17:57.828Z,6.60
2022-10-10T07:20:45.547Z,6.70
2022-10-10T07:23:33.275Z,7.00
2022-10-10T07:27:02.541Z,7.15
2022-10-10T07:29:52.497Z,7.77
2022-10-10T07:32:40.075Z,6.77
2022-10-10T07:35:27.738Z,6.37
2022-10-10T07:38:14.804Z,7.40
2022-10-10T07:41:06.414Z,6.40
2022-10-10T07:43:57.226Z,6.93
2022-10-10T07:53:26.212Z,6.40
2022-10-10T07:56:13.607Z,7.03
2022-10-10T07:59:01.018Z,6.30
2022-10-10T08:01:48.814Z,7.00
2022-10-10T08:04:54.202Z,6.37
2022-10-10T08:07:42.440Z,6.43
2022-10-10T08:10:29.912Z,7.47
2022-10-10T08:13:42.440Z,6.70
2022-10-10T08:19:32.460Z,7.60
2022-10-10T08:22:20.023Z,7.23
2022-10-10T08:25:07.832Z,6.67
2022-10-10T08:27:55.247Z,6.60
2022-10-10T08:30:42.397Z,6.63
2022-10-10T08:33:29.847Z,6.47
2022-10-10T08:36:20.568Z,6.27
2022-10-10T08:39:07.870Z,7.70
2022-10-10T08:42:03.387Z,7.10
2022-10-10T08:44:56.009Z,6.95
2022-10-10T08:47:52.688Z,6.53
2022-10-10T08:50:50.357Z,6.73
2022-10-10T08:53:48.708Z,7.30
2022-10-10T08:56:38.954Z,7.60
2022-10-10T08:59:39.690Z,7.17
2022-10-10T09:02:53.572Z,7.73
2022-10-10T09:05:41.628Z,6.97
2022-10-10T09:12:03.867Z,7.27
2022-10-10T09:18:08.996Z,6.80
2022-10-10T09:21:26.720Z,7.60
2022-10-10T09:24:21.969Z,7.77
2022-10-10T09:27:14.899Z,6.63
2022-10-10T09:36:46.575Z,7.68
2022-10-10T09:39:40.118Z,7.70
2022-10-10T09:42:39.098Z,6.83
2022-10-10T09:45:56.325Z,6.43
2022-10-10T09:48:58.288Z,6.60
2022-10-10T09:51:47.230Z,7.60
2022-10-10T09:54:35.854Z,7.37
2022-10-10T09:57:26.908Z,6.97
2022-10-10T10:00:20.605Z,7.23
2022-10-10T10:40:17.546Z,9.23
2022-10-10T10:46:21.264Z,8.57
2022-10-10T10:49:25.403Z,8.53
2022-10-10T10:52:32.071Z,8.50
2022-10-10T11:02:54.799Z,9.60
2022-10-10T11:09:50.690Z,9.87
2022-10-10T11:12:53.392Z,8.63
2022-10-10T11:19:17.606Z,9.02
2022-10-10T11:22:22.356Z,9.37
2022-10-10T11:28:46.024Z,9.20
2022-10-10T11:32:07.387Z,9.90
2022-10-10T11:35:12.486Z,9.10
2022-10-10T11:38:10.718Z,8.93
2022-10-10T11:41:16.062Z,7.23
2022-10-10T11:44:19.925Z,7.05
2022-10-10T11:47:12.728Z,5.33
2022-10-10T11:50:14.657Z,4.27
2022-10-10T11:53:08.023Z,3.80
2022-10-10T12:03:01.623Z,2.60
2022-10-10T12:09:40.503Z,2.40
2022-10-10T12:12:36.886Z,2.00
2022-10-10T12:15:36.247Z,2.33
2022-10-10T12:18:43.789Z,1.70
2022-10-10T12:21:31.981Z,1.60
2022-10-10T12:24:19.308Z,1.50
2022-10-10T12:27:06.879Z,1.10
2022-10-10T12:29:57.097Z,0.93
2022-10-10T12:48:06.926Z,2.03
2022-10-10T12:51:01.177Z,2.50
2022-10-10T12:53:58.724Z,1.87
2022-10-10T12:56:47.401Z,1.90
2022-10-10T12:59:37.100Z,1.70
2022-10-10T13:02:28.313Z,1.70
2022-10-10T13:05:20.631Z,1.90
2022-10-10T13:08:14.556Z,1.20
2022-10-10T13:11:11.918Z,1.47
2022-10-10T13:13:59.047Z,1.37
2022-10-10T13:16:46.886Z,2.17
2022-10-10T13:19:41.754Z,1.77
2022-10-10T13:22:31.485Z,1.67
2022-10-10T13:25:19.056Z,2.10
2022-10-10T13:28:17.823Z,2.30
2022-10-10T13:31:10.588Z,2.87
2022-10-10T13:34:02.071Z,3.23
2022-10-10T13:36:49.449Z,3.07
2022-10-10T13:39:38.885Z,2.83
2022-10-10T13:42:36.508Z,2.90
2022-10-10T13:45:44.472Z,2.37
2022-10-10T13:48:33.390Z,2.50
2022-10-10T14:19:26.362Z,2.83
2022-10-10T14:22:14.074Z,2.73
2022-10-10T14:25:01.559Z,3.20
2022-10-10T14:27:48.791Z,2.23
2022-10-10T14:30:36.916Z,2.67
2022-10-10T14:33:26.185Z,3.87
2022-10-10T14:36:13.655Z,2.73
2022-10-10T14:39:01.105Z,2.83
2022-10-10T15:15:31.800Z,2.23
2022-10-10T15:18:53.160Z,1.87
2022-10-10T15:22:32.231Z,2.23
2022-10-10T15:25:56.856Z,2.37
2022-10-10T15:32:06.411Z,2.13
2022-10-10T15:35:05.719Z,2.90
2022-10-10T15:38:11.954Z,1.90
2022-10-10T15:41:09.859Z,2.63
2022-10-10T15:44:12.468Z,2.27
2022-10-10T15:47:03.445Z,2.40
2022-10-10T15:49:52.846Z,2.53
2022-10-10T15:52:40.738Z,2.50
2022-10-10T15:55:29.180Z,1.90
2022-10-10T15:58:18.114Z,1.73
2022-10-10T16:01:19.169Z,2.17
2022-10-10T16:04:08.003Z,2.20
2022-10-10T16:07:25.502Z,2.00
2022-10-10T16:10:10.775Z,2.33
2022-10-10T16:12:58.970Z,2.20
2022-10-10T16:16:02.774Z,3.27
2022-10-10T16:18:56.885Z,3.10
2022-10-10T16:21:45.430Z,3.43
2022-10-10T16:24:42.752Z,2.30
2022-10-10T16:27:32.791Z,3.20
2022-10-10T16:30:23.275Z,2.20
2022-10-10T16:36:23.941Z,2.77
2022-10-10T16:39:35.034Z,2.30
2022-10-10T16:42:42.893Z,2.27
2022-10-10T16:45:33.335Z,2.30
2022-10-10T16:48:28.249Z,2.53
2022-10-10T16:51:35.975Z,2.27
2022-10-10T16:54:25.942Z,3.37
2022-10-10T16:57:28.454Z,2.87
2022-10-10T17:04:15.307Z,2.40
2022-10-10T17:10:59.648Z,3.30
2022-10-10T17:13:59.419Z,3.83
2022-10-10T17:17:10.938Z,3.87
2022-10-10T17:20:04.273Z,3.70
2022-10-10T17:22:58.239Z,3.20
2022-10-10T17:25:49.492Z,3.17
2022-10-10T17:28:44.576Z,3.40
2022-10-10T17:34:29.914Z,3.63
2022-10-10T17:37:18.471Z,3.50
2022-10-10T17:40:08.486Z,3.73
2022-10-10T17:43:06.966Z,3.37
2022-10-10T17:46:34.355Z,3.73
2022-10-10T17:49:33.011Z,3.85
2022-10-10T17:52:54.355Z,3.70
2022-10-10T17:55:47.658Z,3.80
2022-10-10T17:59:07.452Z,3.60
2022-10-10T18:02:31.138Z,4.73
2022-10-10T18:06:46.658Z,3.63
2022-10-10T18:09:42.559Z,3.80
2022-10-10T18:13:09.966Z,3.40
2022-10-10T18:20:01.464Z,2.73
2022-10-10T18:26:45.163Z,3.33
2022-10-10T18:29:43.673Z,3.50
2022-10-10T18:32:36.057Z,3.77
2022-10-10T18:35:24.123Z,3.03
2022-10-10T18:42:00.161Z,3.70
2022-10-10T18:45:29.125Z,3.73
2022-10-10T18:48:26.730Z,2.93
2022-10-10T18:51:32.738Z,3.23
2022-10-10T18:54:24.804Z,3.00
2022-10-10T19:00:40.021Z,3.33
2022-10-10T19:04:13.771Z,3.17
2022-10-10T19:07:08.312Z,4.07
2022-10-10T19:10:08.137Z,3.20
2022-10-10T19:13:02.110Z,2.90
2022-10-10T19:15:55.174Z,3.30
2022-10-10T19:18:43.412Z,3.03
2022-10-10T19:21:40.228Z,3.37
2022-10-10T19:24:34.089Z,4.17
2022-10-10T19:27:29.912Z,3.93
2022-10-10T19:33:48.344Z,3.72
2022-10-10T19:52:21.905Z,3.50
2022-10-10T19:55:31.543Z,4.77
2022-10-10T19:58:19.439Z,3.38
2022-10-10T20:01:09.328Z,3.40
2022-10-10T20:31:24.637Z,3.10
2022-10-10T20:40:32.358Z,3.50
2022-10-10T20:46:26.429Z,2.83
2022-10-10T20:49:19.966Z,3.37
2022-10-10T20:52:07.457Z,3.30
2022-10-10T20:54:54.961Z,2.93
2022-10-10T20:57:42.357Z,2.77
2022-10-10T21:00:29.838Z,3.03
2022-10-10T21:03:16.988Z,2.90
2022-10-10T21:06:08.602Z,3.27
2022-10-10T21:08:58.475Z,2.90
2022-10-10T21:11:50.571Z,3.20
2022-10-10T21:14:38.554Z,3.47
2022-10-10T21:21:26.715Z,3.10
2022-10-10T21:27:48.682Z,2.75
2022-10-10T21:36:00.309Z,3.20
2022-10-10T21:39:20.920Z,2.97
2022-10-10T21:48:24.174Z,3.30
2022-10-10T22:07:45.967Z,2.83
2022-10-10T22:10:34.644Z,3.17
2022-10-10T22:13:22.069Z,2.70
2022-10-10T22:16:10.323Z,2.40
2022-10-10T22:24:52.182Z,2.87
2022-10-10T22:57:37.316Z,2.63
2022-10-10T23:00:29.773Z,2.60
2022-10-10T23:06:41.507Z,2.60
2022-10-10T23:09:36.617Z,2.60
2022-10-10T23:15:39.626Z,3.10
2022-10-10T23:18:39.788Z,2.73
2022-10-10T23:21:31.859Z,2.70
2022-10-10T23:24:28.736Z,2.38
2022-10-10T23:27:41.518Z,2.57
2022-10-10T23:30:38.776Z,2.70
2022-10-10T23:33:33.331Z,1.90
2022-10-10T23:36:39.238Z,2.55
2022-10-10T23:39:27.701Z,2.40
2022-10-10T23:42:21.744Z,2.43
2022-10-10T23:45:12.447Z,2.70
2022-10-10T23:48:02.408Z,2.60
2022-10-10T23:50:55.587Z,2.60
2022-10-10T23:56:58.095Z,2.53
2022-10-10T23:59:52.509Z,2.57
